createdAt,value
2018-12-31T00:02:19.041Z,8.43
2018-12-31T00:04:47.488Z,8.85
2018-12-31T00:07:15.983Z,11.18
2018-12-31T00:09:44.432Z,9.98
2018-12-31T00:12:12.889Z,12.75
2018-12-31T00:14:41.381Z,10.38
2018-12-31T00:17:09.845Z,8.38
2018-12-31T00:19:38.296Z,8.08
2018-12-31T00:22:06.842Z,8.58
2018-12-31T00:24:35.243Z,6.72
2018-12-31T00:27:03.736Z,4.50
2018-12-31T00:29:32.187Z,5.83
2018-12-31T00:32:01.789Z,3.60
2018-12-31T00:34:30.318Z,6.33
2018-12-31T00:36:58.775Z,4.15
2018-12-31T00:39:27.222Z,3.35
2018-12-31T00:41:55.711Z,2.85
2018-12-31T00:44:24.155Z,3.25
2018-12-31T00:46:52.607Z,3.72
2018-12-31T00:49:21.131Z,3.02
2018-12-31T00:51:49.552Z,3.52
2018-12-31T00:54:18.000Z,2.35
2018-12-31T00:56:46.599Z,5.72
2018-12-31T00:59:15.038Z,3.27
2018-12-31T01:01:43.563Z,3.05
2018-12-31T01:04:12.144Z,5.03
2018-12-31T01:06:40.627Z,3.62
2018-12-31T01:09:09.080Z,2.98
2018-12-31T01:11:37.587Z,3.85
2018-12-31T01:14:06.036Z,2.90
2018-12-31T01:16:34.492Z,2.60
2018-12-31T01:19:03.030Z,6.25
2018-12-31T01:21:31.539Z,3.65
2018-12-31T01:23:59.986Z,4.90
2018-12-31T01:26:28.436Z,4.10
2018-12-31T01:28:56.954Z,2.70
2018-12-31T01:31:25.435Z,3.40
2018-12-31T01:33:53.847Z,4.65
2018-12-31T01:36:22.343Z,3.72
2018-12-31T01:38:50.879Z,3.30
2018-12-31T01:41:19.388Z,3.42
2018-12-31T01:43:47.942Z,6.80
2018-12-31T01:46:16.430Z,3.45
2018-12-31T01:48:44.884Z,3.25
2018-12-31T01:51:13.331Z,2.67
2018-12-31T01:53:41.823Z,4.22
2018-12-31T01:56:10.445Z,3.95
2018-12-31T01:58:38.933Z,3.10
2018-12-31T02:01:07.419Z,4.05
2018-12-31T02:03:36.853Z,3.83
2018-12-31T02:06:05.499Z,3.50
2018-12-31T02:08:35.982Z,2.62
2018-12-31T02:11:13.193Z,3.30
2018-12-31T02:13:42.525Z,2.65
2018-12-31T02:16:10.996Z,2.35
2018-12-31T02:18:39.451Z,2.70
2018-12-31T02:21:07.951Z,4.35
2018-12-31T02:23:36.437Z,2.58
2018-12-31T02:26:04.919Z,2.90
2018-12-31T02:28:33.434Z,2.08
2018-12-31T02:31:01.983Z,3.12
2018-12-31T02:33:30.463Z,3.05
2018-12-31T02:35:59.050Z,3.72
2018-12-31T02:38:27.500Z,4.80
2018-12-31T02:40:55.964Z,2.92
2018-12-31T02:43:24.489Z,3.35
2018-12-31T02:45:52.911Z,2.67
2018-12-31T02:48:21.365Z,2.95
2018-12-31T02:50:49.861Z,3.20
2018-12-31T02:53:18.415Z,3.37
2018-12-31T02:55:46.896Z,5.20
2018-12-31T02:58:15.368Z,1.80
2018-12-31T03:00:43.858Z,4.10
2018-12-31T03:03:12.340Z,2.00
2018-12-31T03:05:40.858Z,1.72
2018-12-31T03:08:09.602Z,2.95
2018-12-31T03:10:38.062Z,2.10
2018-12-31T03:13:06.769Z,4.33
2018-12-31T03:15:35.257Z,7.15
2018-12-31T03:18:03.668Z,2.47
2018-12-31T03:20:32.216Z,2.00
2018-12-31T03:23:00.627Z,2.60
2018-12-31T03:25:29.073Z,1.70
2018-12-31T03:27:57.661Z,2.27
2018-12-31T03:30:26.128Z,3.90
2018-12-31T03:32:54.579Z,4.95
2018-12-31T03:35:23.072Z,4.05
2018-12-31T03:37:51.519Z,3.55
2018-12-31T03:40:20.013Z,6.22
2018-12-31T03:42:48.504Z,1.80
2018-12-31T03:45:16.953Z,3.92
2018-12-31T03:47:45.410Z,5.62
2018-12-31T03:50:13.904Z,2.40
2018-12-31T03:52:42.355Z,5.40
2018-12-31T03:55:11.512Z,3.05
2018-12-31T03:57:40.000Z,3.37
2018-12-31T04:00:08.523Z,4.95
2018-12-31T04:02:37.111Z,6.03
2018-12-31T04:05:05.595Z,5.95
2018-12-31T04:07:34.049Z,4.40
2018-12-31T04:10:02.556Z,4.80
2018-12-31T04:12:31.002Z,6.30
2018-12-31T04:14:59.517Z,5.22
2018-12-31T04:17:28.100Z,3.65
2018-12-31T04:19:56.600Z,2.62
2018-12-31T04:22:25.056Z,3.30
2018-12-31T04:24:53.503Z,5.37
2018-12-31T04:27:22.008Z,2.62
2018-12-31T04:29:50.459Z,3.55
2018-12-31T04:32:18.987Z,2.65
2018-12-31T04:34:47.515Z,2.80
2018-12-31T04:37:15.965Z,3.83
2018-12-31T04:39:44.533Z,5.90
2018-12-31T04:42:13.015Z,4.05
2018-12-31T04:44:41.481Z,2.00
2018-12-31T04:47:09.919Z,2.58
2018-12-31T04:49:38.458Z,7.17
2018-12-31T04:52:06.872Z,2.40
2018-12-31T04:54:35.315Z,3.47
2018-12-31T04:57:03.806Z,5.03
2018-12-31T04:59:32.281Z,3.10
2018-12-31T05:02:00.761Z,2.33
2018-12-31T05:04:29.212Z,3.42
2018-12-31T05:06:57.726Z,4.42
2018-12-31T05:09:26.305Z,9.03
2018-12-31T05:11:54.803Z,2.72
2018-12-31T05:14:23.262Z,2.12
2018-12-31T05:16:51.715Z,3.22
2018-12-31T05:19:20.229Z,2.52
2018-12-31T05:21:48.668Z,2.40
2018-12-31T05:24:17.119Z,2.58
2018-12-31T05:26:45.673Z,4.83
2018-12-31T05:29:14.078Z,2.05
2018-12-31T05:31:42.637Z,2.20
2018-12-31T05:34:11.119Z,2.98
2018-12-31T05:36:39.567Z,5.28
2018-12-31T05:39:08.023Z,3.22
2018-12-31T05:41:36.560Z,5.58
2018-12-31T05:44:04.979Z,4.10
2018-12-31T05:46:33.430Z,5.62
2018-12-31T05:49:01.936Z,3.37
2018-12-31T05:51:30.388Z,4.75
2018-12-31T05:53:58.845Z,3.08
2018-12-31T05:56:27.444Z,3.12
2018-12-31T05:58:55.902Z,5.33
2018-12-31T06:01:26.095Z,2.47
2018-12-31T06:03:54.588Z,2.52
2018-12-31T06:06:23.111Z,1.98
2018-12-31T06:08:51.604Z,3.20
2018-12-31T06:11:20.098Z,7.03
2018-12-31T06:13:48.755Z,3.55
2018-12-31T06:16:17.198Z,3.40
2018-12-31T06:18:45.721Z,2.37
2018-12-31T06:21:14.202Z,4.00
2018-12-31T06:23:42.620Z,3.08
2018-12-31T06:26:11.166Z,3.55
2018-12-31T06:28:39.573Z,3.17
2018-12-31T06:31:08.026Z,2.30
2018-12-31T06:33:36.512Z,6.53
2018-12-31T06:36:04.976Z,4.70
2018-12-31T06:38:33.430Z,4.10
2018-12-31T06:41:02.128Z,6.80
2018-12-31T06:43:30.579Z,4.92
2018-12-31T06:45:59.031Z,2.70
2018-12-31T06:48:27.595Z,15.65
2018-12-31T06:50:56.082Z,8.65
2018-12-31T06:53:24.542Z,7.67
2018-12-31T06:55:53.083Z,13.15
2018-12-31T06:58:21.622Z,14.75
2018-12-31T07:00:50.046Z,6.45
2018-12-31T07:03:18.497Z,4.85
2018-12-31T07:05:46.999Z,5.60
2018-12-31T07:08:15.447Z,3.70
2018-12-31T07:10:43.894Z,5.42
2018-12-31T07:13:12.407Z,6.58
2018-12-31T07:15:40.887Z,5.22
2018-12-31T07:18:09.300Z,3.77
2018-12-31T07:20:37.849Z,6.17
2018-12-31T07:23:06.331Z,3.00
2018-12-31T07:25:34.807Z,3.87
2018-12-31T07:28:03.321Z,2.75
2018-12-31T07:30:31.774Z,3.90
2018-12-31T07:33:00.255Z,5.05
2018-12-31T07:35:28.737Z,2.60
2018-12-31T07:37:57.220Z,2.40
2018-12-31T07:40:25.651Z,4.35
2018-12-31T07:42:54.181Z,5.50
2018-12-31T07:45:22.595Z,3.67
2018-12-31T07:47:51.143Z,5.45
2018-12-31T07:50:19.659Z,2.15
2018-12-31T07:52:48.112Z,3.37
2018-12-31T07:55:16.589Z,6.53
2018-12-31T07:57:45.094Z,5.08
2018-12-31T08:00:14.263Z,3.58
2018-12-31T08:02:42.706Z,5.60
2018-12-31T08:05:11.225Z,4.53
2018-12-31T08:07:39.707Z,4.53
2018-12-31T08:10:08.188Z,4.25
2018-12-31T08:12:36.774Z,4.00
2018-12-31T08:15:06.576Z,7.62
2018-12-31T08:17:35.024Z,5.85
2018-12-31T08:20:04.332Z,9.38
2018-12-31T08:22:32.810Z,7.28
2018-12-31T08:25:01.331Z,3.40
2018-12-31T08:27:35.027Z,9.50
2018-12-31T08:30:03.574Z,5.47
2018-12-31T08:32:32.023Z,6.70
2018-12-31T08:35:00.511Z,8.07
2018-12-31T08:37:29.059Z,8.55
2018-12-31T08:39:57.526Z,6.92
2018-12-31T08:42:26.123Z,2.40
2018-12-31T08:44:54.706Z,3.75
2018-12-31T08:47:23.188Z,4.10
2018-12-31T08:49:51.735Z,3.50
2018-12-31T08:52:20.914Z,3.43
2018-12-31T08:54:49.345Z,9.95
2018-12-31T08:57:17.930Z,4.73
2018-12-31T08:59:46.394Z,5.45
2018-12-31T09:02:14.848Z,2.55
2018-12-31T09:04:43.374Z,4.67
2018-12-31T09:07:11.791Z,3.45
2018-12-31T09:09:40.240Z,3.53
2018-12-31T09:12:08.735Z,3.60
2018-12-31T09:14:37.298Z,3.87
2018-12-31T09:17:05.761Z,10.25
2018-12-31T09:19:34.260Z,6.95
2018-12-31T09:22:02.708Z,4.90
2018-12-31T09:24:31.224Z,7.15
2018-12-31T09:26:59.666Z,5.83
2018-12-31T09:29:28.185Z,9.08
2018-12-31T09:31:56.686Z,4.70
2018-12-31T09:34:25.171Z,8.40
2018-12-31T09:36:53.628Z,5.30
2018-12-31T09:39:22.083Z,4.10
2018-12-31T09:41:50.577Z,4.23
2018-12-31T09:44:19.026Z,3.93
2018-12-31T09:46:47.471Z,6.47
2018-12-31T09:49:15.981Z,7.43
2018-12-31T09:51:44.926Z,3.70
2018-12-31T09:54:13.815Z,4.57
2018-12-31T09:56:42.706Z,4.10
2018-12-31T09:59:11.597Z,4.60
2018-12-31T10:01:40.489Z,6.10
2018-12-31T10:04:09.388Z,7.03
2018-12-31T10:06:38.270Z,7.20
2018-12-31T10:09:07.261Z,6.50
2018-12-31T10:11:36.255Z,6.67
2018-12-31T10:14:05.102Z,6.47
2018-12-31T10:16:33.984Z,11.30
2018-12-31T10:19:02.870Z,5.17
2018-12-31T10:21:31.707Z,7.03
2018-12-31T10:24:00.697Z,3.33
2018-12-31T10:26:29.645Z,4.03
2018-12-31T10:28:58.484Z,4.30
2018-12-31T10:31:27.528Z,6.87
2018-12-31T10:33:56.942Z,3.30
2018-12-31T10:36:25.893Z,9.43
2018-12-31T10:38:55.053Z,2.67
2018-12-31T10:41:24.245Z,6.03
2018-12-31T10:43:53.405Z,3.93
2018-12-31T10:46:22.345Z,3.43
2018-12-31T10:48:51.419Z,6.60
2018-12-31T10:51:20.296Z,7.53
2018-12-31T10:53:49.251Z,7.33
2018-12-31T10:56:18.132Z,5.23
2018-12-31T10:58:47.019Z,4.20
2018-12-31T11:01:15.855Z,3.83
2018-12-31T11:03:44.700Z,4.63
2018-12-31T11:06:13.842Z,3.93
2018-12-31T11:08:42.680Z,6.90
2018-12-31T11:11:11.524Z,5.37
2018-12-31T11:13:40.468Z,6.30
2018-12-31T11:16:09.460Z,2.37
2018-12-31T11:18:38.313Z,3.97
2018-12-31T11:21:07.793Z,11.20
2018-12-31T11:23:36.647Z,3.50
2018-12-31T11:26:05.536Z,8.97
2018-12-31T11:28:39.609Z,4.00
2018-12-31T11:31:08.755Z,3.67
2018-12-31T11:33:37.596Z,5.97
2018-12-31T11:36:06.595Z,8.53
2018-12-31T11:38:35.444Z,3.83
2018-12-31T11:41:04.325Z,3.30
2018-12-31T11:43:33.260Z,4.83
2018-12-31T11:46:02.100Z,2.97
2018-12-31T11:48:30.936Z,7.97
2018-12-31T11:50:59.844Z,4.80
2018-12-31T11:53:28.676Z,7.87
2018-12-31T11:55:57.507Z,5.13
2018-12-31T11:58:26.649Z,6.50
2018-12-31T12:00:55.497Z,9.20
2018-12-31T12:03:24.347Z,6.17
2018-12-31T12:05:53.225Z,3.00
2018-12-31T12:08:22.056Z,5.80
2018-12-31T12:10:50.894Z,3.80
2018-12-31T12:13:19.771Z,7.03
2018-12-31T12:15:48.628Z,3.47
2018-12-31T12:18:17.473Z,3.00
2018-12-31T12:20:46.350Z,5.90
2018-12-31T12:23:15.191Z,4.63
2018-12-31T12:25:44.032Z,5.20
2018-12-31T12:28:13.033Z,5.03
2018-12-31T12:30:41.924Z,9.87
2018-12-31T12:33:10.766Z,5.47
2018-12-31T12:35:39.610Z,4.10
2018-12-31T12:38:08.503Z,5.20
2018-12-31T12:40:37.539Z,9.77
2018-12-31T12:43:06.385Z,5.80
2018-12-31T12:45:35.393Z,3.70
2018-12-31T12:48:04.211Z,4.83
2018-12-31T12:50:33.147Z,3.40
2018-12-31T12:53:02.243Z,5.33
2018-12-31T12:55:31.111Z,6.20
2018-12-31T12:57:59.952Z,3.80
2018-12-31T13:00:28.980Z,5.97
2018-12-31T13:02:57.864Z,4.50
2018-12-31T13:05:26.766Z,5.27
2018-12-31T13:07:55.670Z,3.03
2018-12-31T13:10:24.560Z,8.20
2018-12-31T13:12:53.665Z,4.63
2018-12-31T13:15:22.507Z,3.53
2018-12-31T13:17:51.411Z,7.13
2018-12-31T13:20:20.246Z,4.33
2018-12-31T13:22:49.083Z,4.43
2018-12-31T13:25:17.963Z,6.00
2018-12-31T13:27:46.803Z,3.50
2018-12-31T13:30:15.651Z,5.83
2018-12-31T13:32:44.528Z,4.60
2018-12-31T13:35:13.519Z,3.97
2018-12-31T13:37:42.425Z,12.30
2018-12-31T13:40:11.343Z,7.63
2018-12-31T13:42:40.468Z,6.23
2018-12-31T13:45:09.358Z,6.77
2018-12-31T13:47:37.852Z,6.70
2018-12-31T13:50:06.304Z,3.93
2018-12-31T13:52:34.747Z,4.20
2018-12-31T13:55:03.442Z,3.37
2018-12-31T13:57:31.878Z,4.77
2018-12-31T14:00:00.420Z,5.70
2018-12-31T14:02:28.911Z,4.33
2018-12-31T14:04:57.509Z,4.27
2018-12-31T14:07:26.650Z,5.57
2018-12-31T14:09:55.155Z,9.67
2018-12-31T14:12:23.584Z,7.60
2018-12-31T14:14:52.347Z,6.37
2018-12-31T14:17:20.870Z,8.08
2018-12-31T14:19:49.696Z,8.60
2018-12-31T14:22:18.200Z,10.20
2018-12-31T14:24:46.745Z,13.17
2018-12-31T14:27:15.424Z,9.00
2018-12-31T14:29:43.879Z,8.73
2018-12-31T14:32:12.762Z,9.67
2018-12-31T14:34:41.296Z,9.43
2018-12-31T14:37:09.751Z,8.75
2018-12-31T14:39:38.341Z,12.33
2018-12-31T14:42:06.779Z,11.43
2018-12-31T14:44:35.531Z,14.73
2018-12-31T14:47:04.984Z,9.00
2018-12-31T14:49:33.475Z,8.25
2018-12-31T14:52:01.928Z,12.63
2018-12-31T14:54:30.420Z,10.30
2018-12-31T14:56:58.976Z,5.97
2018-12-31T14:59:27.432Z,13.70
2018-12-31T15:01:55.935Z,21.15
2018-12-31T15:04:24.626Z,5.87
2018-12-31T15:06:53.079Z,5.92
2018-12-31T15:09:21.575Z,7.40
2018-12-31T15:11:50.139Z,3.70
2018-12-31T15:14:18.773Z,4.00
2018-12-31T15:16:47.212Z,5.65
2018-12-31T15:19:15.654Z,4.47
2018-12-31T15:21:44.147Z,5.05
2018-12-31T15:24:12.733Z,5.62
2018-12-31T15:26:41.178Z,5.12
2018-12-31T15:29:09.675Z,5.60
2018-12-31T15:31:38.340Z,5.70
2018-12-31T15:34:06.778Z,5.08
2018-12-31T15:36:35.366Z,5.97
2018-12-31T15:39:05.456Z,6.03
2018-12-31T15:41:34.259Z,4.60
2018-12-31T15:44:02.719Z,10.75
2018-12-31T15:46:31.231Z,6.70
2018-12-31T15:48:59.978Z,12.65
2018-12-31T15:51:28.543Z,14.50
2018-12-31T15:53:57.018Z,10.38
2018-12-31T15:56:27.464Z,12.35
2018-12-31T15:58:56.012Z,12.68
2018-12-31T16:01:24.858Z,13.20
2018-12-31T16:03:53.575Z,12.05
2018-12-31T16:06:22.019Z,8.45
2018-12-31T16:08:50.516Z,7.28
2018-12-31T16:11:19.230Z,6.55
2018-12-31T16:13:47.979Z,4.17
2018-12-31T16:16:16.615Z,5.20
2018-12-31T16:18:45.430Z,10.48
2018-12-31T16:21:14.022Z,8.03
2018-12-31T16:23:42.470Z,7.78
2018-12-31T16:26:11.078Z,16.82
2018-12-31T16:28:39.554Z,10.90
2018-12-31T16:31:08.020Z,16.42
2018-12-31T16:33:36.512Z,14.75
2018-12-31T16:36:05.191Z,7.37
2018-12-31T16:38:33.707Z,7.35
2018-12-31T16:41:02.207Z,10.82
2018-12-31T16:43:30.683Z,8.90
2018-12-31T16:45:59.131Z,10.25
2018-12-31T16:48:28.224Z,8.75
2018-12-31T16:50:56.706Z,9.60
2018-12-31T16:53:25.636Z,8.40
2018-12-31T16:55:54.239Z,10.85
2018-12-31T16:58:23.068Z,8.73
2018-12-31T17:00:51.578Z,8.05
2018-12-31T17:03:20.171Z,9.10
2018-12-31T17:05:49.067Z,10.45
2018-12-31T17:08:17.531Z,10.30
2018-12-31T17:10:46.362Z,11.80
2018-12-31T17:13:15.100Z,9.80
2018-12-31T17:15:43.579Z,9.65
2018-12-31T17:18:12.563Z,9.70
2018-12-31T17:20:41.176Z,10.10
2018-12-31T17:23:09.790Z,10.95
2018-12-31T17:25:38.543Z,12.35
2018-12-31T17:28:07.509Z,13.48
2018-12-31T17:30:36.406Z,13.22
2018-12-31T17:33:05.828Z,10.72
2018-12-31T17:35:34.736Z,10.55
2018-12-31T17:38:03.678Z,11.22
2018-12-31T17:40:33.311Z,11.15
2018-12-31T17:43:28.749Z,13.13
2018-12-31T17:45:51.784Z,11.83
2018-12-31T17:48:22.679Z,11.57
2018-12-31T17:50:51.660Z,11.48
2018-12-31T17:53:21.007Z,11.78
2018-12-31T17:55:49.784Z,10.68
2018-12-31T17:58:18.856Z,11.30
2018-12-31T18:00:47.866Z,12.13
2018-12-31T18:03:16.862Z,11.10
2018-12-31T18:05:45.535Z,12.33
2018-12-31T18:08:14.474Z,12.33
2018-12-31T18:10:43.376Z,10.82
2018-12-31T18:13:13.281Z,14.95
2018-12-31T18:15:48.357Z,10.78
2018-12-31T18:18:13.527Z,9.95
2018-12-31T18:20:41.980Z,11.35
2018-12-31T18:23:11.182Z,10.13
2018-12-31T18:25:50.412Z,10.75
2018-12-31T18:28:20.027Z,10.15
2018-12-31T18:30:50.300Z,10.40
2018-12-31T18:33:19.760Z,10.30
2018-12-31T18:35:48.550Z,11.45
2018-12-31T18:38:18.012Z,10.85
2018-12-31T18:40:47.531Z,11.77
2018-12-31T18:43:16.283Z,10.98
2018-12-31T18:45:45.808Z,11.43
2018-12-31T18:48:15.121Z,10.18
2018-12-31T18:50:44.058Z,11.28
2018-12-31T18:53:13.503Z,9.70
2018-12-31T18:55:42.566Z,9.80
2018-12-31T18:58:11.565Z,10.50
2018-12-31T19:00:41.144Z,9.65
2018-12-31T19:03:11.810Z,9.63
2018-12-31T19:05:40.935Z,10.65
2018-12-31T19:08:09.410Z,9.88
2018-12-31T19:10:38.179Z,11.00
2018-12-31T19:13:07.665Z,14.45
2018-12-31T19:15:37.240Z,12.25
2018-12-31T19:18:06.137Z,12.90
2018-12-31T19:20:35.145Z,14.50
2018-12-31T19:23:03.992Z,15.30
2018-12-31T19:25:33.398Z,10.50
2018-12-31T19:28:03.267Z,10.68
2018-12-31T19:30:32.720Z,10.68
2018-12-31T19:33:01.748Z,11.30
2018-12-31T19:35:30.578Z,13.13
2018-12-31T19:38:00.056Z,11.88
2018-12-31T19:40:32.685Z,11.20
2018-12-31T19:43:01.877Z,13.90
2018-12-31T19:45:31.315Z,13.88
2018-12-31T19:48:00.840Z,15.48
2018-12-31T19:50:29.695Z,16.62
2018-12-31T19:52:58.407Z,15.45
2018-12-31T19:55:27.686Z,15.38
2018-12-31T19:57:56.427Z,14.05
2018-12-31T20:00:25.963Z,12.07
2018-12-31T20:02:55.392Z,12.65
2018-12-31T20:05:24.387Z,12.37
2018-12-31T20:07:53.380Z,12.93
2018-12-31T20:10:23.695Z,11.20
2018-12-31T20:12:52.460Z,11.60
2018-12-31T20:15:21.554Z,11.10
2018-12-31T20:17:50.224Z,11.53
2018-12-31T20:20:19.159Z,10.78
2018-12-31T20:22:47.914Z,11.05
2018-12-31T20:25:16.876Z,10.32
2018-12-31T20:27:47.263Z,12.55
2018-12-31T20:30:15.735Z,10.72
2018-12-31T20:32:44.337Z,12.55
2018-12-31T20:35:13.493Z,11.97
2018-12-31T20:37:42.052Z,15.23
2018-12-31T20:40:10.685Z,13.50
2018-12-31T20:42:39.441Z,16.62
2018-12-31T20:45:08.364Z,13.18
2018-12-31T20:47:37.063Z,13.28
2018-12-31T20:50:06.811Z,13.00
2018-12-31T20:52:35.275Z,11.65
2018-12-31T20:55:04.259Z,12.10
2018-12-31T20:57:32.831Z,13.22
2018-12-31T21:00:01.772Z,10.72
2018-12-31T21:02:30.476Z,13.48
2018-12-31T21:04:59.060Z,12.98
2018-12-31T21:07:27.778Z,12.33
2018-12-31T21:09:56.428Z,10.75
2018-12-31T21:12:25.226Z,12.00
2018-12-31T21:14:54.175Z,16.70
2018-12-31T21:17:22.734Z,17.50
2018-12-31T21:19:51.591Z,17.25
2018-12-31T21:22:20.182Z,20.12
2018-12-31T21:24:48.839Z,14.95
2018-12-31T21:27:17.747Z,31.68
2018-12-31T21:29:46.617Z,16.10
2018-12-31T21:32:15.730Z,12.73
2018-12-31T21:34:44.220Z,15.20
2018-12-31T21:37:12.823Z,15.93
2018-12-31T21:39:41.388Z,13.55
2018-12-31T21:42:10.364Z,9.78
2018-12-31T21:44:39.433Z,10.30
2018-12-31T21:47:07.984Z,11.83
2018-12-31T21:49:36.514Z,11.43
2018-12-31T21:52:05.358Z,10.95
2018-12-31T21:54:33.875Z,9.08
2018-12-31T21:57:05.211Z,10.08
2018-12-31T21:59:34.066Z,9.40
2018-12-31T22:02:02.774Z,10.05
2018-12-31T22:04:31.500Z,10.78
2018-12-31T22:07:00.815Z,9.20
2018-12-31T22:09:29.783Z,9.63
2018-12-31T22:11:58.454Z,10.03
2018-12-31T22:14:27.247Z,8.85
2018-12-31T22:16:56.001Z,8.50
2018-12-31T22:19:24.747Z,8.30
2018-12-31T22:21:53.726Z,8.78
2018-12-31T22:24:22.346Z,8.28
2018-12-31T22:26:51.702Z,6.80
2018-12-31T22:29:22.066Z,8.50
2018-12-31T22:31:50.755Z,8.58
2018-12-31T22:34:19.823Z,7.90
2018-12-31T22:36:48.476Z,7.92
2018-12-31T22:39:17.477Z,7.17
2018-12-31T22:41:46.187Z,17.23
2018-12-31T22:44:14.875Z,10.95
2018-12-31T22:46:43.606Z,10.03
2018-12-31T22:49:12.071Z,8.95
2018-12-31T22:51:40.596Z,20.52
2018-12-31T22:54:09.611Z,15.20
2018-12-31T22:56:38.160Z,11.40
2018-12-31T22:59:06.711Z,17.65
2018-12-31T23:04:14.624Z,23.00
2018-12-31T23:06:45.265Z,30.40
2018-12-31T23:09:13.937Z,29.18
2018-12-31T23:11:43.748Z,86.90
2018-12-31T23:14:12.206Z,70.25
2018-12-31T23:16:40.666Z,58.17
2018-12-31T23:19:09.176Z,134.82
2018-12-31T23:21:37.679Z,65.80
2018-12-31T23:24:07.083Z,62.62
2018-12-31T23:26:35.575Z,65.30
2018-12-31T23:29:04.038Z,51.60
2018-12-31T23:31:32.487Z,42.20
2018-12-31T23:34:01.170Z,39.42
2018-12-31T23:36:29.622Z,34.78
2018-12-31T23:39:05.034Z,32.03
2018-12-31T23:41:28.217Z,29.80
2018-12-31T23:43:56.671Z,31.35
2018-12-31T23:46:25.119Z,32.33
2018-12-31T23:48:53.608Z,29.57
2018-12-31T23:51:22.059Z,25.62
2018-12-31T23:53:51.329Z,24.18
2018-12-31T23:56:19.898Z,18.75
2018-12-31T23:58:48.378Z,18.02
